Time;durP1;ratioP1;P1;durP2;ratioP2;P2;SDS_P1;SDS_P2;PMS_P1;PMS_P2;Temp;Humidity;BMP_temperature;BMP_pressure;BME280_temperature;BME280_humidity;BME280_pressure;Samples;Min_cycle;Max_cycle;Signal;HPM_P1;HPM_P2
2022/05/05 05:15:50;;;;;;;9.82;5.88;;;12.90;87.80;;;;;;5046977;28;20434;-71
2022/05/05 05:18:16;;;;;;;10.32;6.00;;;12.90;81.90;;;;;;5035312;28;20025;-71
2022/05/05 05:20:42;;;;;;;9.07;5.90;;;13.00;82.20;;;;;;5029375;28;20029;-71
2022/05/05 05:23:07;;;;;;;10.35;6.47;;;13.30;81.70;;;;;;5023015;28;20041;-71
2022/05/05 05:25:33;;;;;;;8.65;5.97;;;13.50;80.90;;;;;;5032865;28;20032;-71
2022/05/05 05:27:59;;;;;;;7.88;5.75;;;13.70;80.20;;;;;;5029678;28;20034;-70
2022/05/05 05:30:24;;;;;;;9.00;6.03;;;13.90;79.70;;;;;;5023752;28;20103;-71
2022/05/05 05:32:50;;;;;;;9.55;5.95;;;14.00;79.00;;;;;;5030669;28;20443;-70
2022/05/05 05:35:16;;;;;;;10.43;6.13;;;14.10;78.70;;;;;;5036114;28;20034;-71
2022/05/05 05:37:42;;;;;;;10.30;6.78;;;14.30;78.50;;;;;;5040414;28;20033;-71
2022/05/05 05:40:08;;;;;;;10.63;5.95;;;14.40;78.10;;;;;;5039011;28;20065;-70
2022/05/05 05:42:34;;;;;;;10.93;6.00;;;14.60;78.00;;;;;;5024588;28;20100;-71
2022/05/05 05:45:00;;;;;;;11.93;5.90;;;14.80;78.30;;;;;;5025595;28;20835;-72
2022/05/05 05:47:26;;;;;;;10.95;6.18;;;14.90;78.50;;;;;;5023583;28;20026;-69
2022/05/05 05:49:51;;;;;;;9.95;5.80;;;15.10;78.50;;;;;;5022492;28;20112;-71
2022/05/05 05:52:17;;;;;;;13.50;6.10;;;15.30;78.30;;;;;;5022540;28;20110;-72
2022/05/05 05:54:46;;;;;;;9.57;6.40;;;15.50;78.30;;;;;;5031900;28;20152;-72
2022/05/05 05:57:11;;;;;;;10.27;6.03;;;15.70;78.80;;;;;;5023276;28;20022;-72
2022/05/05 05:59:37;;;;;;;11.90;6.45;;;15.90;79.00;;;;;;5028141;28;20071;-72
2022/05/05 06:04:47;;;;;;;10.32;6.53;;;16.30;78.90;;;;;;5018641;28;20041;-71
2022/05/05 06:07:12;;;;;;;9.90;6.18;;;16.50;78.40;;;;;;5041087;28;20033;-71
2022/05/05 06:09:38;;;;;;;8.48;6.55;;;16.70;78.10;;;;;;5037164;28;20036;-71
2022/05/05 06:12:04;;;;;;;9.75;6.13;;;16.80;77.60;;;;;;5035349;28;20032;-70
2022/05/05 06:14:30;;;;;;;11.23;6.68;;;16.90;76.90;;;;;;5029835;28;20053;-71
2022/05/05 06:16:56;;;;;;;9.98;6.28;;;17.20;76.40;;;;;;5037721;28;20036;-71
2022/05/05 06:19:22;;;;;;;11.20;6.28;;;17.50;75.90;;;;;;5040615;28;20393;-71
2022/05/05 06:21:47;;;;;;;10.95;6.13;;;17.90;73.90;;;;;;5038618;28;20079;-71
2022/05/05 06:24:13;;;;;;;14.75;6.28;;;18.40;71.20;;;;;;5026985;28;20034;-71
2022/05/05 06:26:39;;;;;;;10.80;6.40;;;18.50;70.10;;;;;;5014002;28;20045;-71
2022/05/05 06:29:05;;;;;;;10.45;6.38;;;18.30;71.00;;;;;;5017712;28;20040;-71
2022/05/05 06:31:30;;;;;;;10.00;6.05;;;18.40;69.80;;;;;;5017170;28;20484;-71
2022/05/05 06:33:56;;;;;;;10.55;6.47;;;18.60;69.10;;;;;;5022414;28;20049;-71
2022/05/05 06:36:22;;;;;;;12.45;6.07;;;18.60;69.00;;;;;;5018449;28;20448;-71
2022/05/05 06:38:51;;;;;;;14.07;6.88;;;18.40;69.30;;;;;;5015504;28;20489;-71
2022/05/05 06:41:16;;;;;;;12.27;5.93;;;18.30;69.40;;;;;;5012541;28;20600;-71
2022/05/05 06:43:42;;;;;;;11.80;5.82;;;19.20;65.20;;;;;;5011081;28;20038;-71
2022/05/05 06:46:08;;;;;;;12.35;6.28;;;19.90;61.90;;;;;;5012962;28;20409;-71
2022/05/05 06:48:33;;;;;;;8.50;5.80;;;19.90;61.70;;;;;;5021074;28;20033;-71
2022/05/05 06:50:59;;;;;;;9.50;6.43;;;19.40;64.00;;;;;;5014895;28;20026;-71
2022/05/05 06:53:25;;;;;;;9.55;5.97;;;19.40;64.00;;;;;;5011278;28;20152;-70
2022/05/05 06:55:51;;;;;;;9.73;6.35;;;19.10;65.40;;;;;;5012068;28;20061;-72
2022/05/05 06:58:16;;;;;;;10.25;5.95;;;18.80;67.00;;;;;;5010637;28;20025;-71
2022/05/05 07:03:26;;;;;;;9.90;5.63;;;19.00;66.10;;;;;;5006729;28;20649;-71
2022/05/05 07:05:52;;;;;;;9.20;5.60;;;18.90;66.90;;;;;;5012540;28;20493;-71
2022/05/05 07:08:18;;;;;;;9.30;5.00;;;18.80;67.20;;;;;;5015066;28;20030;-71
2022/05/05 07:10:53;;;;;;;9.75;5.60;;;18.90;66.70;;;;;;5022044;28;20029;-71
2022/05/05 07:13:23;;;;;;;8.23;5.43;;;19.00;66.50;;;;;;5022608;28;20513;-71
2022/05/05 07:15:49;;;;;;;9.48;5.60;;;18.80;67.10;;;;;;5024161;28;20045;-71
2022/05/05 07:18:15;;;;;;;9.13;6.10;;;18.70;67.90;;;;;;5017744;28;20500;-71
2022/05/05 07:20:41;;;;;;;11.38;5.85;;;18.60;67.90;;;;;;5013343;28;20393;-71
2022/05/05 07:23:12;;;;;;;9.88;5.57;;;18.60;68.60;;;;;;5011879;28;20030;-71
2022/05/05 07:25:41;;;;;;;;;;;18.60;68.90;;;;;;4995372;28;20026;-71
2022/05/05 07:28:08;;;;;;;7.45;5.07;;;18.60;68.50;;;;;;5022248;28;19931;-70
2022/05/05 07:30:33;;;;;;;7.95;4.95;;;18.50;68.40;;;;;;5015785;28;20037;-71
2022/05/05 07:33:00;;;;;;;8.02;4.85;;;18.60;68.40;;;;;;5015903;28;20060;-71
2022/05/05 07:35:26;;;;;;;9.15;5.38;;;18.60;67.90;;;;;;5021358;28;20042;-71
2022/05/05 07:37:51;;;;;;;8.68;4.70;;;18.70;67.50;;;;;;5022433;28;20036;-71
2022/05/05 07:40:17;;;;;;;7.68;5.13;;;18.70;67.00;;;;;;5025967;28;20781;-71
2022/05/05 07:42:43;;;;;;;8.95;5.00;;;18.70;67.80;;;;;;5017032;28;20040;-71
2022/05/05 07:45:09;;;;;;;10.77;5.65;;;18.60;68.60;;;;;;5017724;28;20476;-71
2022/05/05 07:47:35;;;;;;;11.95;4.88;;;18.60;67.60;;;;;;5021784;28;20083;-71
2022/05/05 07:50:01;;;;;;;7.90;5.00;;;18.60;67.40;;;;;;5013093;28;20022;-70
2022/05/05 07:52:27;;;;;;;10.07;4.93;;;18.60;67.60;;;;;;5024449;28;20033;-71
2022/05/05 07:54:53;;;;;;;8.98;4.80;;;18.50;67.80;;;;;;5024423;28;20050;-71
2022/05/05 07:57:20;;;;;;;9.50;4.15;;;18.50;66.90;;;;;;5014066;28;20037;-71
2022/05/05 07:59:46;;;;;;;7.55;4.45;;;18.50;66.30;;;;;;5013832;28;20033;-71
2022/05/05 08:02:15;;;;;;;6.82;4.05;;;18.50;66.30;;;;;;5021326;28;20030;-71
2022/05/05 08:04:44;;;;;;;7.60;4.15;;;18.50;67.30;;;;;;5025030;28;20038;-71
2022/05/05 08:07:11;;;;;;;15.30;4.55;;;18.50;66.40;;;;;;5017970;28;20075;-71
2022/05/05 08:09:37;;;;;;;8.57;4.00;;;18.60;66.50;;;;;;5021341;28;20449;-71
2022/05/05 08:12:06;;;;;;;10.80;4.20;;;18.60;66.30;;;;;;5014550;28;20030;-71
2022/05/05 08:14:32;;;;;;;10.25;3.97;;;18.70;65.70;;;;;;5011351;28;20128;-71
2022/05/05 08:16:58;;;;;;;11.93;4.05;;;18.70;65.50;;;;;;5008772;28;20109;-71
2022/05/05 08:19:24;;;;;;;9.32;3.63;;;18.80;65.00;;;;;;5023113;28;20040;-70
2022/05/05 08:21:50;;;;;;;6.68;3.45;;;18.80;65.10;;;;;;5013773;28;20038;-71
2022/05/05 08:29:46;;;;;;;7.30;3.50;;;19.20;62.90;;;;;;5015049;28;20459;-71
2022/05/05 08:32:12;;;;;;;9.25;3.22;;;19.30;62.60;;;;;;5017125;28;20026;-71
2022/05/05 08:34:37;;;;;;;7.60;3.03;;;19.40;62.10;;;;;;5024645;28;20164;-71
2022/05/05 08:37:03;;;;;;;14.63;3.10;;;19.70;60.20;;;;;;5024418;28;20041;-71
2022/05/05 08:39:29;;;;;;;10.05;3.30;;;19.80;58.60;;;;;;5008801;28;20026;-71
2022/05/05 08:41:55;;;;;;;6.47;2.40;;;19.90;58.50;;;;;;5013600;28;20400;-71
2022/05/05 08:44:22;;;;;;;5.50;2.10;;;20.00;57.50;;;;;;5014910;28;20064;-71
2022/05/05 08:46:48;;;;;;;8.48;2.05;;;19.90;56.60;;;;;;5023188;28;20172;-71
2022/05/05 08:49:17;;;;;;;3.70;1.70;;;19.80;56.90;;;;;;5024654;28;20041;-71
2022/05/05 08:51:45;;;;;;;4.13;1.60;;;19.70;56.10;;;;;;5021271;28;20025;-71
2022/05/05 08:54:18;;;;;;;4.70;1.48;;;19.70;55.10;;;;;;5015747;28;20556;-71
2022/05/05 08:56:45;;;;;;;6.38;1.65;;;20.40;51.70;;;;;;5012870;28;20072;-71
2022/05/05 08:59:14;;;;;;;4.57;1.52;;;21.60;47.90;;;;;;5009669;28;20557;-72
2022/05/05 09:01:40;;;;;;;4.32;1.27;;;22.50;45.40;;;;;;4993685;28;20026;-71
2022/05/05 09:04:07;;;;;;;2.70;1.30;;;22.30;43.50;;;;;;5024298;28;20090;-71
2022/05/05 09:06:53;;;;;;;3.25;1.40;;;21.80;43.90;;;;;;5019452;28;20653;-71
2022/05/05 09:09:29;;;;;;;5.65;1.48;;;21.50;45.60;;;;;;5018448;28;20033;-72
2022/05/05 09:12:25;;;;;;;4.85;1.50;;;21.50;46.20;;;;;;5018449;28;20830;-71
2022/05/05 09:14:53;;;;;;;2.83;1.23;;;21.90;45.70;;;;;;4998620;28;20057;-71
2022/05/05 09:17:24;;;;;;;5.35;1.20;;;22.20;43.90;;;;;;5009677;28;20048;-72
2022/05/05 09:19:51;;;;;;;5.03;1.20;;;22.60;43.50;;;;;;5008228;28;20049;-72
2022/05/05 09:22:19;;;;;;;5.10;1.45;;;23.00;43.40;;;;;;5014478;28;20030;-72
2022/05/05 09:24:49;;;;;;;2.75;1.38;;;22.90;43.30;;;;;;5016392;28;20042;-72
2022/05/05 09:27:18;;;;;;;4.80;1.50;;;20.50;42.50;;;;;;5009252;28;20033;-71
2022/05/05 09:30:02;;;;;;;5.35;1.60;;;21.70;66.50;;;;;;5014677;28;20076;-71
2022/05/05 09:32:30;;;;;;;4.28;1.30;;;21.60;58.10;;;;;;5009765;28;20737;-71
2022/05/05 09:35:00;;;;;;;3.60;1.30;;;21.60;54.90;;;;;;5008091;28;20077;-71
2022/05/05 09:37:26;;;;;;;2.63;1.20;;;21.00;50.10;;;;;;5021111;28;20034;-71
2022/05/05 09:39:57;;;;;;;4.00;1.25;;;22.20;75.40;;;;;;5013838;28;20460;-71
2022/05/05 09:42:39;;;;;;;2.85;1.10;;;22.50;70.40;;;;;;5013888;28;20469;-72
2022/05/05 09:45:20;;;;;;;2.25;1.20;;;19.80;66.90;;;;;;5011836;28;20038;-71
2022/05/05 09:47:46;;;;;;;3.00;1.30;;;22.10;63.70;;;;;;5013658;28;20044;-72
2022/05/05 09:50:12;;;;;;;2.42;1.20;;;24.00;60.20;;;;;;5018880;28;20021;-72
2022/05/05 09:58:14;;;;;;;5.60;1.23;;;23.40;38.40;;;;;;5009787;28;20453;-72
2022/05/05 10:00:49;;;;;;;6.70;1.15;;;23.10;38.60;;;;;;5009630;28;20041;-71
2022/05/05 10:06:18;;;;;;;3.47;1.10;;;23.40;45.70;;;;;;5022895;28;20045;-72
2022/05/05 10:08:46;;;;;;;5.15;1.13;;;22.60;57.60;;;;;;5019850;28;20040;-72
2022/05/05 10:11:16;;;;;;;18.48;1.77;;;22.80;39.10;;;;;;5023011;28;20049;-72
2022/05/05 10:13:43;;;;;;;;;;;22.80;39.50;;;;;;5011588;28;20041;-73
2022/05/05 10:16:09;;;;;;;3.28;1.20;;;23.70;38.70;;;;;;5028682;28;19916;-73
2022/05/05 10:18:39;;;;;;;8.63;1.25;;;24.00;43.30;;;;;;5023542;28;20033;-73
2022/05/05 10:21:23;;;;;;;3.60;1.33;;;24.30;52.00;;;;;;5023965;28;20056;-72
2022/05/05 10:24:07;;;;;;;13.10;1.80;;;23.90;48.30;;;;;;5017264;28;20110;-72
2022/05/05 10:26:33;;;;;;;10.80;1.40;;;25.30;45.90;;;;;;5022994;28;20493;-73
2022/05/05 10:28:59;;;;;;;14.43;1.63;;;24.50;36.30;;;;;;5011168;28;20026;-73
2022/05/05 10:31:31;;;;;;;3.80;1.13;;;25.10;36.20;;;;;;5026923;28;20404;-72
2022/05/05 10:34:00;;;;;;;5.78;1.30;;;26.80;62.70;;;;;;5029723;28;20044;-73
2022/05/05 10:36:28;;;;;;;3.25;1.15;;;26.40;64.20;;;;;;5014678;28;20030;-72
2022/05/05 10:38:55;;;;;;;4.75;1.10;;;27.50;61.10;;;;;;5020746;28;20125;-72
2022/05/05 10:41:39;;;;;;;3.40;1.10;;;26.90;31.30;;;;;;5022023;28;20481;-72
2022/05/05 10:44:16;;;;;;;3.22;1.20;;;27.00;32.00;;;;;;5014453;28;20265;-72
2022/05/05 10:47:01;;;;;;;4.25;1.10;;;26.10;31.90;;;;;;5016524;28;20080;-71
2022/05/05 10:49:41;;;;;;;4.50;1.30;;;26.20;51.60;;;;;;5026494;28;20412;-72
2022/05/05 10:52:10;;;;;;;;;;;26.10;33.40;;;;;;5020315;28;20029;-72
2022/05/05 10:54:40;;;;;;;4.00;1.40;;;26.30;53.40;;;;;;5021597;28;19924;-73
2022/05/05 10:57:27;;;;;;;4.80;1.40;;;27.70;50.10;;;;;;5018058;28;20053;-72
2022/05/05 11:00:11;;;;;;;3.28;1.50;;;27.40;30.90;;;;;;5015922;28;20030;-72
2022/05/05 11:03:01;;;;;;;4.13;1.20;;;28.80;48.00;;;;;;5022467;28;20033;-73
2022/05/05 11:05:36;;;;;;;2.95;1.10;;;29.20;45.90;;;;;;5021202;28;20034;-73
2022/05/05 11:08:08;;;;;;;4.25;2.00;;;28.80;28.10;;;;;;5022424;28;20030;-72
2022/05/05 11:13:41;;;;;;;5.80;1.02;;;27.50;44.20;;;;;;5016791;28;20458;-71
2022/05/05 11:22:19;;;;;;;5.18;1.40;;;27.90;28.60;;;;;;5019500;28;20138;-72
2022/05/05 11:24:49;;;;;;;2.63;1.10;;;28.80;39.30;;;;;;5015393;28;20033;-72
2022/05/05 11:27:19;;;;;;;5.83;1.20;;;29.40;26.70;;;;;;5016830;28;20030;-73
2022/05/05 11:29:54;;;;;;;;;;;29.50;27.40;;;;;;5014815;28;20107;-72
2022/05/05 11:32:21;;;;;;;3.85;1.33;;;32.10;30.60;;;;;;5022227;28;19913;-72
2022/05/05 11:34:48;;;;;;;5.63;1.30;;;31.50;35.80;;;;;;5023848;28;20093;-71
2022/05/05 11:37:15;;;;;;;2.58;1.10;;;30.40;33.90;;;;;;5025584;28;20450;-71
2022/05/05 11:39:41;;;;;;;5.07;1.15;;;31.20;28.20;;;;;;5022653;28;20049;-72
2022/05/05 11:42:09;;;;;;;4.95;1.10;;;29.50;26.50;;;;;;5018085;28;20013;-71
2022/05/05 11:44:43;;;;;;;3.72;1.20;;;30.00;26.30;;;;;;5010097;28;20037;-72
2022/05/05 11:47:13;;;;;;;5.63;1.02;;;33.60;32.20;;;;;;4997997;28;20133;-72
2022/05/05 11:49:40;;;;;;;3.20;0.90;;;32.70;23.10;;;;;;4998531;28;20029;-72
2022/05/05 11:52:06;;;;;;;3.10;1.10;;;32.70;23.50;;;;;;5018419;28;20033;-72
2022/05/05 11:54:33;;;;;;;4.97;1.20;;;33.60;22.40;;;;;;5021353;28;20432;-72
2022/05/05 11:57:00;;;;;;;3.38;0.98;;;34.40;21.70;;;;;;5011516;28;20037;-72
2022/05/05 12:02:19;;;;;;;6.45;1.17;;;32.10;24.40;;;;;;5010898;28;20557;-71
2022/05/05 12:04:58;;;;;;;;;;;30.50;25.80;;;;;;5024525;28;20038;-71
2022/05/05 12:07:26;;;;;;;3.63;1.00;;;31.00;25.30;;;;;;5021752;28;19920;-72
2022/05/05 12:10:02;;;;;;;5.53;1.00;;;32.10;24.20;;;;;;5014988;28;20477;-71
2022/05/05 12:12:30;;;;;;;3.83;1.08;;;30.10;25.80;;;;;;5013605;28;20037;-71
2022/05/05 12:14:58;;;;;;;2.47;1.02;;;26.40;29.40;;;;;;5009268;28;20050;-71
2022/05/05 12:17:32;;;;;;;7.70;1.20;;;29.10;31.50;;;;;;5012206;28;20026;-71
2022/05/05 12:20:05;;;;;;;2.75;1.00;;;27.80;28.80;;;;;;5014057;28;20657;-71
2022/05/05 12:22:32;;;;;;;2.70;1.00;;;31.50;26.50;;;;;;5012822;28;20038;-72
2022/05/05 12:25:23;;;;;;;4.85;0.90;;;33.10;24.40;;;;;;5014352;28;20032;-72
2022/05/05 12:28:01;;;;;;;2.95;1.10;;;32.70;24.60;;;;;;5021444;28;20373;-71
2022/05/05 12:30:34;;;;;;;4.75;1.00;;;31.00;26.30;;;;;;5017931;28;20148;-71
2022/05/05 12:33:02;;;;;;;4.60;1.10;;;29.90;27.20;;;;;;5019478;28;20098;-72
2022/05/05 12:35:29;;;;;;;5.78;1.10;;;31.50;25.30;;;;;;5010940;28;20113;-72
2022/05/05 12:38:06;;;;;;;2.95;0.90;;;33.40;23.90;;;;;;5021422;28;20022;-72
2022/05/05 12:40:33;;;;;;;4.07;1.05;;;34.30;23.00;;;;;;5013000;28;20042;-72
2022/05/05 12:43:01;;;;;;;5.45;1.15;;;33.30;23.80;;;;;;5014324;28;20036;-71
2022/05/05 12:45:30;;;;;;;3.33;1.05;;;31.80;24.90;;;;;;5018264;28;20048;-71
2022/05/05 12:47:58;;;;;;;5.80;1.40;;;31.90;24.70;;;;;;5015850;28;20029;-71
2022/05/05 12:50:40;;;;;;;5.65;1.40;;;31.80;24.60;;;;;;5010453;28;20032;-71
2022/05/05 13:01:31;;;;;;;5.38;1.10;;;35.80;21.10;;;;;;5010181;28;20256;-71
2022/05/05 13:04:05;;;;;;;5.38;2.15;;;35.50;21.00;;;;;;5028137;28;20025;-71
2022/05/05 13:06:31;;;;;;;5.70;1.20;;;33.80;23.00;;;;;;5019308;28;20037;-71
2022/05/05 13:08:57;;;;;;;3.45;1.35;;;32.20;24.00;;;;;;5017769;28;20032;-71
2022/05/05 13:11:23;;;;;;;4.35;1.52;;;31.10;25.40;;;;;;5009745;28;20052;-71
2022/05/05 13:13:50;;;;;;;4.18;1.40;;;32.10;24.50;;;;;;5010038;28;20042;-71
2022/05/05 13:16:16;;;;;;;3.95;1.20;;;32.70;23.90;;;;;;5010957;28;20100;-71
2022/05/05 13:18:43;;;;;;;3.92;1.20;;;33.80;23.00;;;;;;5014473;28;20022;-70
2022/05/05 13:21:09;;;;;;;4.22;1.20;;;34.30;23.00;;;;;;5015915;28;20038;-71
2022/05/05 13:23:35;;;;;;;24.80;2.15;;;33.70;23.20;;;;;;5013988;28;20056;-71
2022/05/05 13:26:03;;;;;;;3.35;1.10;;;34.60;21.70;;;;;;5010793;28;20705;-70
2022/05/05 13:28:30;;;;;;;3.38;1.48;;;35.30;21.00;;;;;;5008926;28;20224;-71
2022/05/05 13:30:56;;;;;;;3.13;1.20;;;35.40;20.70;;;;;;5022555;28;20029;-71
2022/05/05 13:33:22;;;;;;;4.90;1.50;;;33.80;22.30;;;;;;5013560;28;20022;-70
2022/05/05 13:35:48;;;;;;;3.78;1.30;;;33.00;23.30;;;;;;5014060;28;20029;-71
2022/05/05 13:38:14;;;;;;;7.05;1.58;;;33.70;22.30;;;;;;5022626;28;20018;-70
2022/05/05 13:40:39;;;;;;;5.53;1.70;;;32.70;23.50;;;;;;5022212;28;20033;-70
2022/05/05 13:43:05;;;;;;;4.63;1.50;;;31.60;24.80;;;;;;5017119;28;20541;-70
2022/05/05 13:45:32;;;;;;;5.28;1.70;;;30.50;25.40;;;;;;5024621;28;20091;-70
2022/05/05 13:47:58;;;;;;;4.35;1.70;;;29.40;26.50;;;;;;5020385;28;20049;-70
2022/05/05 13:50:24;;;;;;;6.15;1.50;;;28.60;27.40;;;;;;5013508;28;20559;-70
2022/05/05 13:52:50;;;;;;;2.72;1.40;;;29.00;27.70;;;;;;5014106;28;20484;-70
2022/05/05 13:55:16;;;;;;;7.40;1.60;;;29.40;27.30;;;;;;5028523;28;20030;-71
2022/05/05 13:57:42;;;;;;;5.65;1.70;;;29.40;27.30;;;;;;5014327;28;20033;-71
2022/05/05 14:00:09;;;;;;;19.85;2.20;;;28.60;27.70;;;;;;5020219;28;20033;-71
2022/05/05 14:02:35;;;;;;;6.85;1.70;;;28.00;28.60;;;;;;5027691;28;20047;-71
2022/05/05 14:05:01;;;;;;;4.47;1.60;;;27.90;28.80;;;;;;5024725;28;20034;-71
2022/05/05 14:12:55;;;;;;;9.23;1.70;;;28.00;29.40;;;;;;5014067;28;20127;-70
2022/05/05 14:15:22;;;;;;;7.80;1.92;;;27.90;29.70;;;;;;5015493;28;20061;-70
2022/05/05 14:17:48;;;;;;;4.32;1.50;;;28.00;29.90;;;;;;5017232;28;20044;-70
2022/05/05 14:20:13;;;;;;;5.32;1.55;;;28.00;29.40;;;;;;5022410;28;20030;-70
2022/05/05 14:22:42;;;;;;;5.32;1.60;;;27.90;29.10;;;;;;5022442;28;20480;-70
2022/05/05 14:25:11;;;;;;;6.15;1.50;;;27.90;28.90;;;;;;5009445;28;20061;-70
2022/05/05 14:27:41;;;;;;;4.05;1.85;;;27.80;29.40;;;;;;5018366;28;20022;-70
2022/05/05 14:30:07;;;;;;;5.45;1.60;;;27.70;29.50;;;;;;5017971;28;20025;-70
2022/05/05 14:32:34;;;;;;;12.60;2.10;;;27.50;29.60;;;;;;5021542;28;20037;-70
2022/05/05 14:35:00;;;;;;;15.13;2.20;;;27.30;29.90;;;;;;5021842;28;20033;-70
2022/05/05 14:37:26;;;;;;;7.78;1.90;;;27.30;30.00;;;;;;5017004;28;20017;-69
2022/05/05 14:39:51;;;;;;;3.97;1.70;;;27.10;30.90;;;;;;5015082;28;20401;-70
2022/05/05 14:42:17;;;;;;;5.05;1.40;;;27.00;31.30;;;;;;5012085;28;20022;-70
2022/05/05 14:44:43;;;;;;;4.78;1.80;;;26.80;31.30;;;;;;5015043;28;20521;-70
2022/05/05 14:47:09;;;;;;;4.32;1.50;;;26.80;30.80;;;;;;5021951;28;20022;-70
2022/05/05 14:49:36;;;;;;;3.95;1.48;;;26.70;31.30;;;;;;5026832;28;20034;-70
2022/05/05 14:52:03;;;;;;;5.15;1.70;;;26.60;31.40;;;;;;5019974;28;20036;-70
2022/05/05 14:54:29;;;;;;;5.43;1.70;;;26.40;31.40;;;;;;5022911;28;20040;-71
2022/05/05 14:56:59;;;;;;;4.63;1.80;;;26.30;31.00;;;;;;5021303;28;20448;-70
2022/05/05 14:59:25;;;;;;;5.65;1.98;;;26.10;31.50;;;;;;5021752;28;20034;-69
2022/05/05 15:01:50;;;;;;;9.40;2.15;;;26.00;31.60;;;;;;5024916;28;20448;-70
2022/05/05 15:04:16;;;;;;;3.83;1.70;;;25.80;32.10;;;;;;5026821;28;20022;-70
2022/05/05 15:06:47;;;;;;;3.38;1.67;;;25.60;32.80;;;;;;5023606;28;20556;-69
2022/05/05 15:09:14;;;;;;;4.70;1.70;;;25.50;33.60;;;;;;5021272;28;20451;-71
2022/05/05 15:11:40;;;;;;;4.63;1.60;;;25.50;33.30;;;;;;5019597;28;20716;-70
2022/05/05 15:14:05;;;;;;;4.18;1.73;;;25.40;33.20;;;;;;5013172;28;20076;-70
2022/05/05 15:16:31;;;;;;;5.30;1.85;;;25.30;33.10;;;;;;5011223;28;20113;-70
2022/05/05 15:18:57;;;;;;;5.72;2.08;;;25.20;33.60;;;;;;5026087;28;20029;-70
2022/05/05 15:21:23;;;;;;;4.32;1.75;;;25.10;33.90;;;;;;5003350;28;20525;-71
2022/05/05 15:23:50;;;;;;;5.80;2.10;;;25.00;34.10;;;;;;5008792;28;20026;-72
2022/05/05 15:26:16;;;;;;;6.43;1.98;;;25.00;34.30;;;;;;5021187;28;20386;-72
2022/05/05 15:28:42;;;;;;;5.32;2.05;;;25.00;34.30;;;;;;5025323;28;20030;-70
2022/05/05 15:31:09;;;;;;;6.15;1.83;;;24.90;35.20;;;;;;5027163;28;20704;-71
2022/05/05 15:33:35;;;;;;;5.82;1.90;;;25.00;35.00;;;;;;5021257;28;20046;-70
2022/05/05 15:36:02;;;;;;;5.20;1.90;;;24.90;35.20;;;;;;5016074;28;20112;-69
2022/05/05 15:38:28;;;;;;;4.82;1.80;;;24.80;34.50;;;;;;5020902;28;20049;-69
2022/05/05 15:40:56;;;;;;;6.03;1.80;;;24.60;34.50;;;;;;5022991;28;20669;-70
2022/05/05 15:43:22;;;;;;;6.68;1.98;;;24.40;35.30;;;;;;5009547;28;20060;-70
2022/05/05 15:45:49;;;;;;;8.15;2.20;;;24.20;36.20;;;;;;5023780;28;20492;-70
2022/05/05 15:48:15;;;;;;;6.90;2.30;;;24.10;36.70;;;;;;5006152;28;20033;-69
2022/05/05 15:50:41;;;;;;;5.38;2.30;;;24.00;36.60;;;;;;5011694;28;20504;-68
2022/05/05 15:53:07;;;;;;;5.38;2.20;;;24.00;36.90;;;;;;5021250;28;20100;-68
2022/05/05 15:55:33;;;;;;;6.32;1.92;;;23.80;37.30;;;;;;5012082;28;20807;-68
2022/05/05 15:57:59;;;;;;;30.35;2.70;;;23.70;37.80;;;;;;5010319;28;20416;-69
2022/05/05 16:00:26;;;;;;;6.55;1.95;;;23.60;38.00;;;;;;5018476;28;20038;-70
2022/05/05 16:02:53;;;;;;;6.13;2.13;;;23.60;37.60;;;;;;5011869;28;20030;-70
2022/05/05 16:05:20;;;;;;;5.40;2.33;;;23.60;38.10;;;;;;5009671;28;20092;-69
2022/05/05 16:07:49;;;;;;;4.90;2.30;;;23.60;37.60;;;;;;5009799;28;20041;-69
2022/05/05 16:10:16;;;;;;;7.53;2.10;;;23.50;37.40;;;;;;5023901;28;20037;-69
2022/05/05 16:12:42;;;;;;;13.10;2.10;;;23.50;38.50;;;;;;5011488;28;20026;-69
2022/05/05 16:15:09;;;;;;;12.85;2.55;;;23.50;40.00;;;;;;5013797;28;20058;-69
2022/05/05 16:17:37;;;;;;;12.05;2.85;;;23.50;39.20;;;;;;5011521;28;20025;-69
2022/05/05 16:20:08;;;;;;;8.80;2.53;;;23.50;39.70;;;;;;5008528;28;20040;-69
2022/05/05 16:22:34;;;;;;;6.22;1.88;;;23.50;39.40;;;;;;5018754;28;20025;-70
2022/05/05 16:30:29;;;;;;;7.45;2.60;;;23.40;38.70;;;;;;5009989;28;20087;-69
2022/05/05 16:32:55;;;;;;;7.18;2.10;;;23.40;38.60;;;;;;5012786;28;20033;-69
2022/05/05 16:35:22;;;;;;;7.93;2.00;;;23.40;38.80;;;;;;5019183;28;20492;-69
2022/05/05 16:37:50;;;;;;;11.90;1.98;;;23.40;38.70;;;;;;5023283;28;20504;-69
2022/05/05 16:40:17;;;;;;;8.32;1.90;;;23.30;38.70;;;;;;5024965;28;20128;-69
2022/05/05 16:42:49;;;;;;;9.25;1.85;;;23.30;38.70;;;;;;5019761;28;20060;-70
2022/05/05 16:45:15;;;;;;;30.33;3.25;;;23.20;38.70;;;;;;5006761;28;20038;-70
2022/05/05 16:47:42;;;;;;;5.28;2.03;;;23.20;38.80;;;;;;5010427;28;20030;-69
2022/05/05 16:50:09;;;;;;;7.03;1.90;;;23.20;39.00;;;;;;5009901;28;20030;-69
2022/05/05 16:52:35;;;;;;;6.45;2.00;;;23.10;39.20;;;;;;5017978;28;20034;-68
2022/05/05 16:55:04;;;;;;;6.05;1.85;;;23.10;39.40;;;;;;5011183;28;20834;-68
2022/05/05 16:57:31;;;;;;;4.72;1.90;;;23.10;39.80;;;;;;5016317;28;20030;-70
2022/05/05 16:59:58;;;;;;;3.80;1.90;;;23.00;39.20;;;;;;5014614;28;20029;-69
2022/05/05 17:02:24;;;;;;;6.55;1.65;;;23.00;39.20;;;;;;5008285;28;20034;-68
2022/05/05 17:04:49;;;;;;;8.57;1.90;;;22.90;39.10;;;;;;5008235;28;20026;-67
2022/05/05 17:07:15;;;;;;;5.95;1.83;;;22.90;39.30;;;;;;5016884;28;20124;-67
2022/05/05 17:09:41;;;;;;;6.28;1.60;;;22.90;39.50;;;;;;5008526;28;20487;-68
2022/05/05 17:12:08;;;;;;;5.90;1.65;;;22.80;39.50;;;;;;5014693;28;20052;-68
2022/05/05 17:14:33;;;;;;;5.72;1.90;;;22.80;39.80;;;;;;5017402;28;20401;-68
2022/05/05 17:16:59;;;;;;;6.18;1.50;;;22.80;39.70;;;;;;5006800;28;20044;-68
2022/05/05 17:19:26;;;;;;;6.35;1.85;;;22.70;39.60;;;;;;5015919;28;20026;-68
2022/05/05 17:21:52;;;;;;;7.03;1.92;;;22.60;39.60;;;;;;5015797;28;20481;-68
2022/05/05 17:24:17;;;;;;;11.23;4.45;;;22.60;39.90;;;;;;5016702;28;20045;-67
2022/05/05 17:26:46;;;;;;;7.82;2.30;;;22.60;40.30;;;;;;5015811;28;20622;-68
2022/05/05 17:29:12;;;;;;;7.45;2.25;;;22.50;40.50;;;;;;5008043;28;20030;-68
2022/05/05 17:31:38;;;;;;;5.97;1.95;;;22.40;40.80;;;;;;5011260;28;20060;-68
2022/05/05 17:34:04;;;;;;;5.05;1.98;;;22.30;40.90;;;;;;5012355;28;20033;-69
2022/05/05 17:36:31;;;;;;;15.77;3.38;;;22.20;41.40;;;;;;5006492;28;20057;-68
2022/05/05 17:38:58;;;;;;;12.90;2.75;;;22.20;42.00;;;;;;5008397;28;20049;-68
2022/05/05 17:41:27;;;;;;;6.15;2.88;;;22.10;42.10;;;;;;5006226;28;20030;-68
2022/05/05 17:43:53;;;;;;;10.73;2.97;;;22.00;42.30;;;;;;5021324;28;20030;-68
2022/05/05 17:51:54;;;;;;;6.38;3.40;;;21.80;43.50;;;;;;5011185;28;20092;-68
2022/05/05 17:54:28;;;;;;;9.32;3.78;;;21.70;43.70;;;;;;5016496;28;20026;-68
2022/05/05 17:56:55;;;;;;;7.50;3.28;;;21.60;44.10;;;;;;5016232;28;20080;-68
2022/05/05 17:59:20;;;;;;;8.48;3.20;;;21.60;45.30;;;;;;5016089;28;20044;-68
2022/05/05 18:01:49;;;;;;;7.30;3.22;;;21.50;44.80;;;;;;5014805;28;20022;-68
2022/05/05 18:04:15;;;;;;;5.45;3.05;;;21.40;45.00;;;;;;5023801;28;20029;-68
2022/05/05 18:06:41;;;;;;;6.10;3.60;;;21.30;45.50;;;;;;5011174;28;20065;-68
2022/05/05 18:09:07;;;;;;;6.32;3.00;;;21.20;45.60;;;;;;5005803;28;20030;-68
2022/05/05 18:11:34;;;;;;;6.80;3.25;;;21.10;45.90;;;;;;5009504;28;20029;-68
2022/05/05 18:13:59;;;;;;;9.18;3.40;;;21.10;46.30;;;;;;5020460;28;20120;-68
2022/05/05 18:16:25;;;;;;;10.20;3.90;;;21.00;46.40;;;;;;5019505;28;20378;-68
2022/05/05 18:18:53;;;;;;;8.27;3.30;;;20.90;46.30;;;;;;5010411;28;20030;-68
2022/05/05 18:21:19;;;;;;;5.97;3.40;;;20.80;46.40;;;;;;5016358;28;20456;-68
2022/05/05 18:23:44;;;;;;;8.68;3.85;;;20.80;46.80;;;;;;5021947;28;20030;-68
2022/05/05 18:26:11;;;;;;;8.45;3.13;;;20.70;46.90;;;;;;5010864;28;20456;-68
2022/05/05 18:28:37;;;;;;;7.15;4.47;;;20.60;47.10;;;;;;5012036;28;20499;-68
2022/05/05 18:31:04;;;;;;;8.75;3.80;;;20.60;47.30;;;;;;5012656;28;20087;-68
2022/05/05 18:33:30;;;;;;;8.57;3.85;;;20.50;47.30;;;;;;5020479;28;20591;-69
2022/05/05 18:35:56;;;;;;;6.25;3.65;;;20.50;47.60;;;;;;5010095;28;20038;-69
2022/05/05 18:38:22;;;;;;;7.30;3.67;;;20.50;47.60;;;;;;5009524;28;20030;-69
2022/05/05 18:40:48;;;;;;;7.85;3.95;;;20.50;47.80;;;;;;5019558;28;20034;-69
2022/05/05 18:43:14;;;;;;;8.35;3.67;;;20.40;47.80;;;;;;5026778;28;20095;-70
2022/05/05 18:45:40;;;;;;;6.18;3.40;;;20.40;48.00;;;;;;5016378;28;20095;-70
2022/05/05 18:48:07;;;;;;;7.57;3.70;;;20.30;48.10;;;;;;5010922;28;20717;-69
2022/05/05 18:50:34;;;;;;;10.23;3.72;;;20.30;48.30;;;;;;5009692;28;20057;-70
2022/05/05 18:53:00;;;;;;;9.77;3.85;;;20.20;48.30;;;;;;5010285;28;20026;-71
2022/05/05 18:55:26;;;;;;;7.18;3.60;;;20.20;48.30;;;;;;5018133;28;20034;-68
2022/05/05 18:57:52;;;;;;;7.63;3.70;;;20.10;48.30;;;;;;5014761;28;20048;-68
2022/05/05 19:00:19;;;;;;;7.93;3.70;;;20.00;48.60;;;;;;5013386;28;20029;-68